createdAt,value
2022-10-18T00:01:09.149Z,76.74
2022-10-18T00:06:14.816Z,76.93
2022-10-18T00:08:42.683Z,76.92
2022-10-18T00:11:10.709Z,76.79
2022-10-18T00:13:38.828Z,76.68
2022-10-18T00:16:12.354Z,76.57
2022-10-18T00:18:41.109Z,76.31
2022-10-18T00:21:14.310Z,76.35
2022-10-18T00:23:42.795Z,76.40
2022-10-18T00:26:14.753Z,76.65
2022-10-18T00:28:43.841Z,76.57
2022-10-18T00:31:18.017Z,76.42
2022-10-18T00:33:50.136Z,76.54
2022-10-18T00:36:18.208Z,76.47
2022-10-18T00:38:47.221Z,76.18
2022-10-18T00:41:18.961Z,76.12
2022-10-18T00:43:51.287Z,76.38
2022-10-18T00:46:19.613Z,76.37
2022-10-18T00:48:48.563Z,76.56
2022-10-18T00:51:20.460Z,76.50
2022-10-18T00:53:49.557Z,76.44
2022-10-18T00:56:18.099Z,76.15
2022-10-18T00:58:48.157Z,76.50
2022-10-18T01:01:16.263Z,76.89
2022-10-18T01:03:44.607Z,76.97
2022-10-18T01:06:12.620Z,76.84
2022-10-18T01:08:45.769Z,76.85
2022-10-18T01:11:22.648Z,77.01
2022-10-18T01:14:22.668Z,77.20
2022-10-18T01:17:00.461Z,77.26
2022-10-18T01:19:49.533Z,77.37
2022-10-18T01:22:33.987Z,77.28
2022-10-18T01:25:26.442Z,77.07
2022-10-18T01:28:31.637Z,76.98
2022-10-18T01:31:18.634Z,77.00
2022-10-18T01:33:52.160Z,77.08
2022-10-18T01:36:33.107Z,76.94
2022-10-18T01:39:06.279Z,76.89
2022-10-18T01:41:38.755Z,76.85
2022-10-18T01:44:09.604Z,76.81
2022-10-18T01:46:39.903Z,76.80
2022-10-18T01:49:07.969Z,76.85
2022-10-18T01:51:36.342Z,77.02
2022-10-18T01:54:05.110Z,77.10
2022-10-18T01:57:24.403Z,77.00
2022-10-18T02:00:00.787Z,77.11
2022-10-18T02:02:59.432Z,77.19
2022-10-18T02:05:40.345Z,77.07
2022-10-18T02:08:23.151Z,77.28
2022-10-18T02:10:57.364Z,77.25
2022-10-18T02:13:29.396Z,77.26
2022-10-18T02:16:03.831Z,77.13
2022-10-18T02:18:40.015Z,77.24
2022-10-18T02:21:11.617Z,77.34
2022-10-18T02:23:39.902Z,77.43
2022-10-18T02:26:08.123Z,77.30
2022-10-18T02:28:36.216Z,77.14
2022-10-18T02:31:31.083Z,77.23
2022-10-18T02:34:10.180Z,77.28
2022-10-18T02:36:46.490Z,76.99
2022-10-18T02:39:30.534Z,76.88
2022-10-18T02:41:59.850Z,76.79
2022-10-18T02:44:27.703Z,76.80
2022-10-18T02:46:55.755Z,77.19
2022-10-18T02:49:23.748Z,77.10
2022-10-18T02:51:51.928Z,76.99
2022-10-18T02:54:20.198Z,76.83
2022-10-18T02:56:48.269Z,76.91
2022-10-18T02:59:17.059Z,77.29
2022-10-18T03:01:45.237Z,77.33
2022-10-18T03:04:13.532Z,77.43
2022-10-18T03:06:41.582Z,77.65
2022-10-18T03:09:10.162Z,77.55
2022-10-18T03:11:38.239Z,77.46
2022-10-18T03:14:06.205Z,77.43
2022-10-18T03:16:34.379Z,77.39
2022-10-18T03:19:02.418Z,77.46
2022-10-18T03:21:30.522Z,77.48
2022-10-18T03:23:59.775Z,77.50
2022-10-18T03:26:27.693Z,77.69
2022-10-18T03:28:55.923Z,77.82
2022-10-18T03:31:23.943Z,77.68
2022-10-18T03:33:52.010Z,77.64
2022-10-18T03:36:23.061Z,77.50
2022-10-18T03:38:51.020Z,77.57
2022-10-18T03:41:20.717Z,77.51
2022-10-18T03:43:48.881Z,77.48
2022-10-18T03:46:17.190Z,77.41
2022-10-18T03:48:45.060Z,77.40
2022-10-18T03:51:13.122Z,77.35
2022-10-18T03:53:40.957Z,77.49
2022-10-18T03:56:08.855Z,77.45
2022-10-18T03:58:36.860Z,77.43
2022-10-18T04:01:04.899Z,77.55
2022-10-18T04:03:32.819Z,77.79
2022-10-18T04:06:00.941Z,77.58
2022-10-18T04:08:29.555Z,77.54
2022-10-18T04:10:57.617Z,77.48
2022-10-18T04:13:25.497Z,77.53
2022-10-18T04:15:53.442Z,77.50
2022-10-18T04:18:21.406Z,77.48
2022-10-18T04:20:49.288Z,77.51
2022-10-18T04:23:17.268Z,77.45
2022-10-18T04:25:45.213Z,77.51
2022-10-18T04:28:13.184Z,77.43
2022-10-18T04:30:41.049Z,77.46
2022-10-18T04:33:09.013Z,77.53
2022-10-18T04:35:37.089Z,77.53
2022-10-18T04:38:04.958Z,77.54
2022-10-18T04:40:33.030Z,77.49
2022-10-18T04:43:01.036Z,77.83
2022-10-18T04:45:29.374Z,77.85
2022-10-18T04:47:57.445Z,77.77
2022-10-18T04:50:25.415Z,77.70
2022-10-18T04:52:53.810Z,77.95
2022-10-18T04:55:21.711Z,78.05
2022-10-18T04:57:49.686Z,78.02
2022-10-18T05:00:17.805Z,77.88
2022-10-18T05:02:45.773Z,77.97
2022-10-18T05:05:14.415Z,78.12
2022-10-18T05:07:42.637Z,78.36
2022-10-18T05:10:11.118Z,78.28
2022-10-18T05:12:39.188Z,78.45
2022-10-18T05:15:07.670Z,78.55
2022-10-18T05:17:36.101Z,78.73
2022-10-18T05:20:04.940Z,78.72
2022-10-18T05:22:33.313Z,78.87
2022-10-18T05:25:01.576Z,79.01
2022-10-18T05:27:29.956Z,79.09
2022-10-18T05:30:00.033Z,78.96
2022-10-18T05:32:31.555Z,79.27
2022-10-18T05:34:59.811Z,79.46
2022-10-18T05:37:28.520Z,79.53
2022-10-18T05:39:56.657Z,79.69
2022-10-18T05:42:24.934Z,79.96
2022-10-18T05:44:53.109Z,80.27
2022-10-18T05:47:21.384Z,80.61
2022-10-18T05:49:49.545Z,80.34
2022-10-18T05:52:17.834Z,80.06
2022-10-18T05:54:45.907Z,79.82
2022-10-18T05:57:13.977Z,79.71
2022-10-18T05:59:41.948Z,78.92
2022-10-18T06:02:12.108Z,77.52
2022-10-18T06:04:40.041Z,76.75
2022-10-18T06:07:12.206Z,76.39
2022-10-18T06:09:40.481Z,75.98
2022-10-18T06:12:09.167Z,75.79
2022-10-18T06:14:37.653Z,75.72
2022-10-18T06:17:05.926Z,75.84
2022-10-18T06:19:33.813Z,76.06
2022-10-18T06:22:02.081Z,75.98
2022-10-18T06:24:30.042Z,75.94
2022-10-18T06:26:58.675Z,76.01
2022-10-18T06:29:26.819Z,75.79
2022-10-18T06:31:55.075Z,75.51
2022-10-18T06:34:23.046Z,74.79
2022-10-18T06:36:56.418Z,73.68
2022-10-18T06:39:26.563Z,72.56
2022-10-18T06:41:54.745Z,70.99
2022-10-18T06:44:23.010Z,68.96
2022-10-18T06:46:52.007Z,67.70
2022-10-18T06:49:20.084Z,67.07
2022-10-18T06:51:48.220Z,66.36
2022-10-18T06:54:18.333Z,66.27
2022-10-18T06:56:46.979Z,66.25
2022-10-18T06:59:15.340Z,65.92
2022-10-18T07:01:43.909Z,65.48
2022-10-18T07:04:12.081Z,65.05
2022-10-18T07:06:40.164Z,63.81
2022-10-18T07:09:08.240Z,61.43
2022-10-18T07:11:36.207Z,58.47
2022-10-18T07:14:05.042Z,55.66
2022-10-18T07:16:34.520Z,52.89
2022-10-18T07:19:02.698Z,47.84
2022-10-18T07:21:31.570Z,44.45
2022-10-18T07:23:59.521Z,41.23
2022-10-18T07:26:30.336Z,38.48
2022-10-18T07:29:07.851Z,35.07
2022-10-18T07:31:38.546Z,35.20
2022-10-18T07:34:08.015Z,34.67
2022-10-18T07:36:35.893Z,32.27
2022-10-18T07:39:04.922Z,28.67
2022-10-18T07:41:34.269Z,26.78
2022-10-18T07:44:03.159Z,27.88
2022-10-18T07:46:31.434Z,24.27
2022-10-18T07:48:59.814Z,23.96
2022-10-18T07:51:28.294Z,24.92
2022-10-18T07:53:56.365Z,22.15
2022-10-18T07:56:24.443Z,20.48
2022-10-18T07:58:54.257Z,19.63
2022-10-18T08:01:24.127Z,18.10
2022-10-18T08:03:53.161Z,18.19
2022-10-18T08:06:22.952Z,18.67
2022-10-18T08:08:52.479Z,19.38
2022-10-18T08:11:23.574Z,16.59
2022-10-18T08:13:53.129Z,16.93
2022-10-18T08:16:28.996Z,16.35
2022-10-18T08:19:00.455Z,16.47
2022-10-18T08:21:28.610Z,15.50
2022-10-18T08:23:56.613Z,14.62
2022-10-18T08:26:24.703Z,13.62
2022-10-18T08:28:58.544Z,13.19
2022-10-18T08:31:37.857Z,13.45
2022-10-18T08:34:05.876Z,13.36
2022-10-18T08:36:34.051Z,13.06
2022-10-18T08:39:03.348Z,13.65
2022-10-18T08:41:44.317Z,13.03
2022-10-18T08:44:23.037Z,12.71
2022-10-18T08:47:06.774Z,12.79
2022-10-18T08:49:46.775Z,13.34
2022-10-18T08:52:58.523Z,12.67
2022-10-18T08:55:36.430Z,12.29
2022-10-18T08:58:17.298Z,11.70
2022-10-18T09:00:58.988Z,12.34
2022-10-18T09:03:47.812Z,11.51
2022-10-18T09:06:43.172Z,11.09
2022-10-18T09:09:32.951Z,11.43
2022-10-18T09:12:26.003Z,11.77
2022-10-18T09:15:18.545Z,11.44
2022-10-18T09:18:14.064Z,11.53
2022-10-18T09:21:00.466Z,11.54
2022-10-18T09:23:46.922Z,11.99
2022-10-18T09:26:20.059Z,11.46
2022-10-18T09:29:09.780Z,11.59
2022-10-18T09:31:50.708Z,11.75
2022-10-18T09:34:29.029Z,12.09
2022-10-18T09:36:58.030Z,12.57
2022-10-18T09:39:31.452Z,13.38
2022-10-18T09:42:12.180Z,14.36
2022-10-18T09:44:45.783Z,15.66
2022-10-18T09:47:37.151Z,16.78
2022-10-18T09:50:42.756Z,18.16
2022-10-18T09:53:20.445Z,19.79
2022-10-18T09:56:06.362Z,20.85
2022-10-18T09:58:46.638Z,22.02
2022-10-18T10:01:21.371Z,23.01
2022-10-18T10:03:49.704Z,23.78
2022-10-18T10:06:29.654Z,24.72
2022-10-18T10:09:00.994Z,26.05
2022-10-18T10:11:34.915Z,26.98
2022-10-18T10:14:10.381Z,27.60
2022-10-18T10:16:51.434Z,27.74
2022-10-18T10:19:37.332Z,28.57
2022-10-18T10:22:14.556Z,29.00
2022-10-18T10:25:00.809Z,30.90
2022-10-18T10:27:32.387Z,31.02
2022-10-18T10:30:07.355Z,31.02
2022-10-18T10:32:48.106Z,31.76
2022-10-18T10:35:35.499Z,32.52
2022-10-18T10:38:24.657Z,33.27
2022-10-18T10:40:53.461Z,33.53
2022-10-18T10:43:37.610Z,33.60
2022-10-18T10:46:19.340Z,34.04
2022-10-18T10:49:27.831Z,34.17
2022-10-18T10:52:08.235Z,34.27
2022-10-18T10:54:39.220Z,34.25
2022-10-18T10:57:16.599Z,34.35
2022-10-18T10:59:48.053Z,35.46
2022-10-18T11:02:21.657Z,35.66
2022-10-18T11:04:55.259Z,35.07
2022-10-18T11:07:41.152Z,35.13
2022-10-18T11:10:26.871Z,35.41
2022-10-18T11:13:05.551Z,34.69
2022-10-18T11:15:36.590Z,34.65
2022-10-18T11:18:10.922Z,35.57
2022-10-18T11:20:43.936Z,35.30
2022-10-18T11:23:14.837Z,35.09
2022-10-18T11:26:05.029Z,35.39
2022-10-18T11:29:07.172Z,35.15
2022-10-18T11:32:07.681Z,33.83
2022-10-18T11:34:47.997Z,32.16
2022-10-18T11:37:28.208Z,30.08
2022-10-18T11:40:17.721Z,28.37
2022-10-18T11:43:12.772Z,26.64
2022-10-18T11:46:00.661Z,24.83
2022-10-18T11:49:07.247Z,23.52
2022-10-18T11:52:06.612Z,22.55
2022-10-18T11:54:44.995Z,21.28
2022-10-18T11:57:27.979Z,20.67
2022-10-18T12:00:08.544Z,20.28
2022-10-18T12:03:14.431Z,19.51
2022-10-18T12:05:46.724Z,19.13
2022-10-18T12:08:21.406Z,18.58
2022-10-18T12:11:04.471Z,17.89
2022-10-18T12:13:50.314Z,17.79
2022-10-18T12:16:38.901Z,16.90
2022-10-18T12:19:23.571Z,17.08
2022-10-18T12:22:13.989Z,16.61
2022-10-18T12:24:42.489Z,16.51
2022-10-18T12:27:14.577Z,16.58
2022-10-18T12:29:51.588Z,16.36
2022-10-18T12:32:27.210Z,16.45
2022-10-18T12:35:01.375Z,17.03
2022-10-18T12:37:51.199Z,17.30
2022-10-18T12:40:46.951Z,17.37
2022-10-18T12:43:41.718Z,17.84
2022-10-18T12:46:13.702Z,18.42
2022-10-18T12:48:48.780Z,18.77
2022-10-18T12:51:20.030Z,18.92
2022-10-18T12:53:55.055Z,19.38
2022-10-18T12:56:29.326Z,19.95
2022-10-18T12:59:15.569Z,20.41
2022-10-18T13:01:55.599Z,20.85
2022-10-18T13:04:32.697Z,21.98
2022-10-18T13:07:08.356Z,23.13
2022-10-18T13:10:03.049Z,24.10
2022-10-18T13:12:43.815Z,25.09
2022-10-18T13:15:47.253Z,25.98
2022-10-18T13:18:22.481Z,26.85
2022-10-18T13:21:11.059Z,28.04
2022-10-18T13:23:41.950Z,29.46
2022-10-18T13:26:38.060Z,30.07
2022-10-18T13:29:36.972Z,30.42
2022-10-18T13:34:48.271Z,32.56
2022-10-18T13:37:16.329Z,33.11
2022-10-18T13:39:45.254Z,33.34
2022-10-18T13:42:16.133Z,33.98
2022-10-18T13:44:45.064Z,34.55
2022-10-18T13:47:33.994Z,35.12
2022-10-18T13:50:22.558Z,35.77
2022-10-18T13:53:10.619Z,36.71
2022-10-18T13:55:57.533Z,37.85
2022-10-18T13:58:49.244Z,37.74
2022-10-18T14:02:00.308Z,39.39
2022-10-18T14:04:46.979Z,40.95
2022-10-18T14:07:19.441Z,41.54
2022-10-18T14:09:59.495Z,42.00
2022-10-18T14:12:47.885Z,42.60
2022-10-18T14:15:26.345Z,42.96
2022-10-18T14:18:02.281Z,43.81
2022-10-18T14:21:01.534Z,44.47
2022-10-18T14:23:42.062Z,45.08
2022-10-18T14:26:19.039Z,45.21
2022-10-18T14:29:03.225Z,46.57
2022-10-18T14:31:31.776Z,46.16
2022-10-18T14:34:00.174Z,46.82
2022-10-18T14:36:35.720Z,47.64
2022-10-18T14:39:07.810Z,48.42
2022-10-18T14:41:41.266Z,48.73
2022-10-18T14:44:29.833Z,49.61
2022-10-18T14:47:03.842Z,50.34
2022-10-18T14:49:32.038Z,50.60
2022-10-18T14:52:01.231Z,50.67
2022-10-18T14:54:37.987Z,51.43
2022-10-18T14:57:07.500Z,52.13
2022-10-18T14:59:59.838Z,52.40
2022-10-18T15:02:30.727Z,52.77
2022-10-18T15:05:19.957Z,53.26
2022-10-18T15:07:50.334Z,53.51
2022-10-18T15:10:23.406Z,54.30
2022-10-18T15:13:09.293Z,54.73
2022-10-18T15:15:39.591Z,54.57
2022-10-18T15:18:15.937Z,54.91
2022-10-18T15:20:43.843Z,55.47
2022-10-18T15:23:38.799Z,56.16
2022-10-18T15:26:13.218Z,56.64
2022-10-18T15:28:50.236Z,57.15
2022-10-18T15:31:27.861Z,57.37
2022-10-18T15:34:10.825Z,57.92
2022-10-18T15:36:38.844Z,58.55
2022-10-18T15:39:13.427Z,58.65
2022-10-18T15:41:49.065Z,58.88
2022-10-18T15:44:51.034Z,59.45
2022-10-18T15:47:21.778Z,59.54
2022-10-18T15:49:51.329Z,59.56
2022-10-18T15:52:39.511Z,59.95
2022-10-18T15:55:46.376Z,60.25
2022-10-18T15:58:21.469Z,60.52
2022-10-18T16:00:51.345Z,60.94
2022-10-18T16:03:22.387Z,60.98
2022-10-18T16:05:56.376Z,60.71
2022-10-18T16:08:28.913Z,61.57
2022-10-18T16:10:58.995Z,62.16
2022-10-18T16:13:27.578Z,62.73
2022-10-18T16:15:59.748Z,63.03
2022-10-18T16:18:28.229Z,63.18
2022-10-18T16:20:56.812Z,63.22
2022-10-18T16:23:28.717Z,63.66
2022-10-18T16:25:57.284Z,64.09
2022-10-18T16:28:26.684Z,64.18
2022-10-18T16:31:02.166Z,64.45
2022-10-18T16:33:31.098Z,64.58
2022-10-18T16:35:59.171Z,64.71
2022-10-18T16:38:32.637Z,64.85
2022-10-18T16:41:04.977Z,65.16
2022-10-18T16:43:34.777Z,65.46
2022-10-18T16:46:04.696Z,65.66
2022-10-18T16:48:33.267Z,65.81
2022-10-18T16:51:01.735Z,65.86
2022-10-18T16:53:29.682Z,66.27
2022-10-18T16:56:00.553Z,66.72
2022-10-18T16:58:30.328Z,66.79
2022-10-18T17:01:01.025Z,66.69
2022-10-18T17:03:31.617Z,66.69
2022-10-18T17:05:59.589Z,66.05
2022-10-18T17:08:28.328Z,65.46
2022-10-18T17:10:59.479Z,65.62
2022-10-18T17:13:27.645Z,65.64
2022-10-18T17:15:55.868Z,66.10
2022-10-18T17:18:30.577Z,66.31
2022-10-18T17:21:02.872Z,66.20
2022-10-18T17:23:31.246Z,66.39
2022-10-18T17:26:08.658Z,65.90
2022-10-18T17:28:43.631Z,66.74
2022-10-18T17:31:14.536Z,66.96
2022-10-18T17:33:42.838Z,67.22
2022-10-18T17:36:11.292Z,67.40
2022-10-18T17:38:39.221Z,68.15
2022-10-18T17:41:11.418Z,68.26
2022-10-18T17:46:14.820Z,68.78
2022-10-18T17:48:43.915Z,69.14
2022-10-18T17:51:14.886Z,69.47
2022-10-18T17:53:43.028Z,69.70
2022-10-18T17:56:12.125Z,70.56
2022-10-18T17:58:43.277Z,70.51
2022-10-18T18:01:15.749Z,70.29
2022-10-18T18:03:44.075Z,70.93
2022-10-18T18:06:19.704Z,71.38
2022-10-18T18:08:49.279Z,71.22
2022-10-18T18:11:18.583Z,71.18
2022-10-18T18:13:46.446Z,71.15
2022-10-18T18:16:16.054Z,71.25
2022-10-18T18:18:48.806Z,71.47
2022-10-18T18:21:17.444Z,71.48
2022-10-18T18:23:46.230Z,71.86
2022-10-18T18:26:15.409Z,72.00
2022-10-18T18:28:43.823Z,72.05
2022-10-18T18:31:24.982Z,71.81
2022-10-18T18:33:55.717Z,71.89
2022-10-18T18:36:29.017Z,71.34
2022-10-18T18:38:57.955Z,70.86
2022-10-18T18:41:28.231Z,70.49
2022-10-18T18:43:59.013Z,70.37
2022-10-18T18:46:30.020Z,70.19
2022-10-18T18:48:58.473Z,70.23
2022-10-18T18:51:26.751Z,70.92
2022-10-18T18:53:55.336Z,70.43
2022-10-18T18:56:26.179Z,70.50
2022-10-18T18:58:55.061Z,70.72
2022-10-18T19:01:25.577Z,70.64
2022-10-18T19:03:55.652Z,70.60
2022-10-18T19:06:30.727Z,70.44
2022-10-18T19:09:02.814Z,70.79
2022-10-18T19:11:37.915Z,71.03
2022-10-18T19:14:08.416Z,70.91
2022-10-18T19:16:39.234Z,70.80
2022-10-18T19:19:11.706Z,70.94
2022-10-18T19:21:48.258Z,71.17
2022-10-18T19:24:16.227Z,71.24
2022-10-18T19:26:53.104Z,71.51
2022-10-18T19:29:29.137Z,71.41
2022-10-18T19:31:59.901Z,71.45
2022-10-18T19:34:29.391Z,71.74
2022-10-18T19:36:58.091Z,71.58
2022-10-18T19:39:31.725Z,71.53
2022-10-18T19:42:03.346Z,71.60
2022-10-18T19:44:33.761Z,71.84
2022-10-18T19:47:03.188Z,72.02
2022-10-18T19:49:31.250Z,72.37
2022-10-18T19:51:59.219Z,72.52
2022-10-18T19:54:27.189Z,73.08
2022-10-18T19:56:55.373Z,73.55
2022-10-18T19:59:24.260Z,73.71
2022-10-18T20:01:52.240Z,73.81
2022-10-18T20:04:20.299Z,73.82
2022-10-18T20:06:48.340Z,73.94
2022-10-18T20:09:19.670Z,73.70
2022-10-18T20:11:49.025Z,73.45
2022-10-18T20:14:16.918Z,73.25
2022-10-18T20:16:44.913Z,73.08
2022-10-18T20:19:12.929Z,73.29
2022-10-18T20:21:40.895Z,73.35
2022-10-18T20:24:09.536Z,73.64
2022-10-18T20:26:37.786Z,74.16
2022-10-18T20:29:07.565Z,74.79
2022-10-18T20:31:38.465Z,75.83
2022-10-18T20:34:10.693Z,75.47
2022-10-18T20:36:39.672Z,75.53
2022-10-18T20:39:08.277Z,75.75
2022-10-18T20:41:38.891Z,75.53
2022-10-18T20:44:11.935Z,75.95
2022-10-18T20:46:40.663Z,76.23
2022-10-18T20:49:12.757Z,75.60
2022-10-18T20:51:41.109Z,75.28
2022-10-18T20:54:10.493Z,75.27
2022-10-18T20:56:39.223Z,75.34
2022-10-18T20:59:09.904Z,75.35
2022-10-18T21:01:39.727Z,75.48
2022-10-18T21:04:09.775Z,75.33
2022-10-18T21:06:41.045Z,75.06
2022-10-18T21:09:12.669Z,74.90
2022-10-18T21:11:43.061Z,75.19
2022-10-18T21:14:13.782Z,75.53
2022-10-18T21:16:42.968Z,75.53
2022-10-18T21:19:15.012Z,75.70
2022-10-18T21:21:44.903Z,75.72
2022-10-18T21:24:13.701Z,75.58
2022-10-18T21:26:41.969Z,75.98
2022-10-18T21:29:11.569Z,76.22
2022-10-18T21:31:41.695Z,76.04
2022-10-18T21:34:15.696Z,75.41
2022-10-18T21:36:47.269Z,75.35
2022-10-18T21:39:19.153Z,75.17
2022-10-18T21:41:47.831Z,75.25
2022-10-18T21:44:17.012Z,75.25
2022-10-18T21:46:47.037Z,75.37
2022-10-18T21:49:16.325Z,75.35
2022-10-18T21:51:44.602Z,75.42
2022-10-18T21:54:14.717Z,75.31
2022-10-18T21:56:43.614Z,75.29
2022-10-18T21:59:13.352Z,75.15
2022-10-18T22:01:44.193Z,75.07
2022-10-18T22:04:23.481Z,75.11
2022-10-18T22:06:52.012Z,75.65
2022-10-18T22:09:21.512Z,75.46
2022-10-18T22:11:53.316Z,75.86
2022-10-18T22:14:22.389Z,75.60
2022-10-18T22:16:51.332Z,75.67
2022-10-18T22:19:19.569Z,75.56
2022-10-18T22:21:47.767Z,75.55
2022-10-18T22:24:16.311Z,75.40
2022-10-18T22:26:45.771Z,75.36
2022-10-18T22:29:19.317Z,75.16
2022-10-18T22:31:53.289Z,75.25
2022-10-18T22:34:29.252Z,75.63
2022-10-18T22:36:57.253Z,75.60
2022-10-18T22:39:25.511Z,75.26
2022-10-18T22:41:56.463Z,75.06
2022-10-18T22:44:26.757Z,75.10
2022-10-18T22:46:54.804Z,74.92
2022-10-18T22:49:22.793Z,74.98
2022-10-18T22:51:50.762Z,75.14
2022-10-18T22:54:19.139Z,75.22
2022-10-18T22:56:47.007Z,75.20
2022-10-18T22:59:15.024Z,75.13
2022-10-18T23:01:42.896Z,75.25
2022-10-18T23:04:11.088Z,75.64
2022-10-18T23:06:40.214Z,75.44
2022-10-18T23:09:10.655Z,75.40
2022-10-18T23:11:38.531Z,75.37
2022-10-18T23:14:07.708Z,75.58
2022-10-18T23:16:36.294Z,75.75
2022-10-18T23:19:04.774Z,75.88
2022-10-18T23:21:34.352Z,75.73
2022-10-18T23:24:02.497Z,75.79
2022-10-18T23:26:30.818Z,75.89
2022-10-18T23:28:59.358Z,76.35
2022-10-18T23:31:30.672Z,76.22
2022-10-18T23:34:02.277Z,75.99
2022-10-18T23:36:32.751Z,76.18
2022-10-18T23:39:01.566Z,76.51
2022-10-18T23:41:29.830Z,76.54
2022-10-18T23:43:57.839Z,76.66
2022-10-18T23:46:26.035Z,76.66
2022-10-18T23:48:54.182Z,76.64
2022-10-18T23:51:22.306Z,76.67
2022-10-18T23:53:50.175Z,76.40
2022-10-18T23:56:18.144Z,76.55
2022-10-18T23:58:46.848Z,76.79
